Time;durP1;ratioP1;P1;durP2;ratioP2;P2;SDS_P1;SDS_P2;PMS_P1;PMS_P2;Temp;Humidity;BMP_temperature;BMP_pressure;BME280_temperature;BME280_humidity;BME280_pressure;Samples;Min_cycle;Max_cycle;Signal;HPM_P1;HPM_P2
2021/07/19 00:02:16;;;;;;;0.10;0.10;;;23.90;76.10;;;;;;4189296;28;20084;-52
2021/07/19 00:04:40;;;;;;;0.20;0.20;;;23.90;76.10;;;;;;4190383;28;20056;-51
2021/07/19 00:07:02;;;;;;;0.13;0.13;;;23.90;76.20;;;;;;4200794;28;20509;-53
2021/07/19 00:09:24;;;;;;;0.32;0.32;;;23.90;76.20;;;;;;4207458;28;20074;-51
2021/07/19 00:11:47;;;;;;;0.63;0.63;;;23.90;76.20;;;;;;4196699;28;20047;-53
2021/07/19 00:14:10;;;;;;;0.90;0.73;;;23.90;76.10;;;;;;4203370;28;20109;-53
2021/07/19 00:16:32;;;;;;;0.00;0.00;;;23.90;76.10;;;;;;4207182;28;20154;-54
2021/07/19 00:18:55;;;;;;;2.08;1.48;;;23.90;76.10;;;;;;4207055;28;20498;-54
2021/07/19 00:21:17;;;;;;;0.52;0.52;;;23.90;76.10;;;;;;4207405;28;20129;-53
2021/07/19 00:23:40;;;;;;;0.00;0.00;;;23.90;77.00;;;;;;4209811;28;20524;-54
2021/07/19 00:26:01;;;;;;;0.10;0.10;;;23.90;76.10;;;;;;4210476;28;20051;-52
2021/07/19 00:28:25;;;;;;;0.40;0.40;;;23.90;76.10;;;;;;4209913;28;20413;-52
2021/07/19 00:30:47;;;;;;;0.13;0.13;;;23.90;76.20;;;;;;4209756;28;20058;-54
2021/07/19 00:33:10;;;;;;;0.10;0.10;;;23.90;76.10;;;;;;4209653;28;20044;-52
2021/07/19 00:35:33;;;;;;;0.20;0.20;;;23.80;76.00;;;;;;4202640;28;20047;-55
2021/07/19 00:37:55;;;;;;;0.00;0.00;;;23.90;76.20;;;;;;4209770;28;20131;-55
2021/07/19 00:40:19;;;;;;;0.10;0.10;;;23.80;76.20;;;;;;4209717;28;20154;-52
2021/07/19 00:42:44;;;;;;;0.52;0.52;;;23.80;77.10;;;;;;4209132;28;20451;-51
2021/07/19 00:45:11;;;;;;;18.00;1.08;;;23.80;76.40;;;;;;4209639;28;20052;-50
2021/07/19 00:47:33;;;;;;;0.00;0.00;;;23.80;76.30;;;;;;4236949;27;20050;-52
2021/07/19 00:49:56;;;;;;;0.05;0.05;;;23.80;76.40;;;;;;4208218;28;20048;-52
2021/07/19 00:52:19;;;;;;;0.70;0.70;;;23.80;77.30;;;;;;4207962;28;20117;-51
2021/07/19 00:54:44;;;;;;;0.00;0.00;;;23.80;76.40;;;;;;4208182;28;20052;-52
2021/07/19 00:57:08;;;;;;;3.83;0.80;;;23.80;76.50;;;;;;4209851;28;20490;-54
2021/07/19 00:59:33;;;;;;;0.00;0.00;;;23.80;76.50;;;;;;4208007;28;20054;-52
2021/07/19 01:02:00;;;;;;;0.05;0.05;;;23.80;76.50;;;;;;4208044;28;20472;-49
2021/07/19 01:04:25;;;;;;;0.08;0.08;;;23.80;76.50;;;;;;4208060;28;20059;-49
2021/07/19 01:06:52;;;;;;;0.10;0.10;;;23.80;76.60;;;;;;4207865;28;20105;-49
2021/07/19 01:09:15;;;;;;;0.55;0.55;;;23.80;76.70;;;;;;4208922;28;20048;-54
2021/07/19 01:11:38;;;;;;;0.00;0.00;;;23.70;76.60;;;;;;4199961;28;20517;-51
2021/07/19 01:14:00;;;;;;;0.00;0.00;;;23.70;76.50;;;;;;4209062;28;20138;-54
2021/07/19 01:16:22;;;;;;;0.38;0.22;;;23.70;76.40;;;;;;4207154;28;20043;-53
2021/07/19 01:18:46;;;;;;;0.00;0.00;;;23.70;76.50;;;;;;4209090;28;20044;-54
2021/07/19 01:21:43;;;;;;;0.17;0.17;;;23.70;76.50;;;;;;4207652;28;20040;-54
2021/07/19 01:24:14;;;;;;;0.10;0.10;;;23.70;76.50;;;;;;4208762;28;20048;-49
2021/07/19 01:26:56;;;;;;;0.20;0.20;;;23.70;76.50;;;;;;4208916;28;20052;-52
2021/07/19 01:29:22;;;;;;;0.15;0.15;;;23.70;76.50;;;;;;4206937;28;20452;-53
2021/07/19 01:31:46;;;;;;;0.22;0.22;;;23.70;76.50;;;;;;4190873;28;20054;-52
2021/07/19 01:34:12;;;;;;;0.20;0.20;;;23.60;76.40;;;;;;4200833;28;20146;-54
2021/07/19 01:36:40;;;;;;;0.25;0.25;;;23.60;76.40;;;;;;4207337;28;20048;-50
2021/07/19 01:39:17;;;;;;;0.00;0.00;;;23.60;76.40;;;;;;4208475;28;20055;-54
2021/07/19 01:41:41;;;;;;;14.70;0.93;;;23.60;76.40;;;;;;4208454;28;20050;-54
2021/07/19 01:44:06;;;;;;;0.22;0.22;;;23.60;76.40;;;;;;4207568;28;20144;-54
2021/07/19 01:46:30;;;;;;;0.10;0.10;;;23.60;76.40;;;;;;4207581;28;20055;-53
2021/07/19 01:48:53;;;;;;;0.65;0.60;;;23.60;76.40;;;;;;4207243;28;20097;-53
2021/07/19 01:51:16;;;;;;;0.00;0.00;;;23.60;76.40;;;;;;4204508;28;20653;-53
2021/07/19 01:53:50;;;;;;;0.00;0.00;;;23.60;76.50;;;;;;4206474;28;20074;-48
2021/07/19 01:56:13;;;;;;;0.20;0.20;;;23.60;76.40;;;;;;4208782;28;20059;-53
2021/07/19 01:58:37;;;;;;;0.00;0.00;;;23.60;76.50;;;;;;4205458;28;20105;-53
2021/07/19 02:01:07;;;;;;;0.00;0.00;;;23.60;76.50;;;;;;4206747;28;20060;-52
2021/07/19 02:03:31;;;;;;;3.10;0.95;;;23.60;76.50;;;;;;4208694;28;20158;-51
2021/07/19 02:05:57;;;;;;;0.20;0.20;;;23.60;76.50;;;;;;4206902;28;20043;-53
2021/07/19 02:08:21;;;;;;;0.00;0.00;;;23.60;77.40;;;;;;4206856;28;20518;-51
2021/07/19 02:10:59;;;;;;;0.00;0.00;;;23.60;76.50;;;;;;4220308;27;20074;-52
2021/07/19 02:13:25;;;;;;;0.20;0.20;;;23.60;76.50;;;;;;4208070;28;20079;-51
2021/07/19 02:15:52;;;;;;;0.00;0.00;;;23.60;76.50;;;;;;4206154;28;20131;-52
2021/07/19 02:18:20;;;;;;;0.20;0.20;;;23.60;76.50;;;;;;4206878;28;20055;-50
2021/07/19 02:20:46;;;;;;;0.00;0.00;;;23.60;76.50;;;;;;4190072;28;20541;-53
2021/07/19 02:23:15;;;;;;;0.20;0.20;;;23.60;76.60;;;;;;4190870;28;20069;-56
2021/07/19 02:26:01;;;;;;;0.20;0.20;;;23.60;76.60;;;;;;4199283;28;20082;-50
2021/07/19 02:28:24;;;;;;;0.00;0.00;;;23.60;76.60;;;;;;4207954;28;20052;-52
2021/07/19 02:30:48;;;;;;;0.00;0.00;;;23.60;76.60;;;;;;4206255;28;20166;-52
2021/07/19 02:33:12;;;;;;;0.00;0.00;;;23.50;76.50;;;;;;4206084;28;20048;-54
2021/07/19 02:35:41;;;;;;;0.05;0.05;;;23.60;76.60;;;;;;4200030;28;20052;-56
2021/07/19 02:38:08;;;;;;;0.05;0.05;;;23.60;76.50;;;;;;4199590;28;20097;-54
2021/07/19 02:40:53;;;;;;;0.10;0.10;;;23.60;76.50;;;;;;4207765;28;20490;-55
2021/07/19 02:43:16;;;;;;;0.00;0.00;;;23.60;76.50;;;;;;4205892;28;20495;-54
2021/07/19 02:45:41;;;;;;;0.30;0.30;;;23.50;76.50;;;;;;4207340;28;20135;-54
2021/07/19 02:48:05;;;;;;;0.00;0.00;;;23.50;76.50;;;;;;4206365;28;20151;-52
2021/07/19 02:50:33;;;;;;;0.10;0.10;;;23.50;76.50;;;;;;4207766;28;20051;-52
2021/07/19 02:52:59;;;;;;;3.83;0.38;;;23.50;76.50;;;;;;4207805;28;20768;-51
2021/07/19 02:55:24;;;;;;;0.00;0.00;;;23.50;76.50;;;;;;4194668;27;20050;-52
2021/07/19 02:57:47;;;;;;;0.20;0.20;;;23.50;76.50;;;;;;4234459;27;20051;-50
2021/07/19 03:00:12;;;;;;;0.05;0.05;;;23.50;76.50;;;;;;4207368;28;20051;-53
2021/07/19 03:02:41;;;;;;;1.75;0.32;;;23.50;76.60;;;;;;4206795;28;20168;-54
2021/07/19 03:05:04;;;;;;;0.00;0.00;;;23.50;76.60;;;;;;4205946;28;20121;-53
2021/07/19 03:07:30;;;;;;;0.00;0.00;;;23.50;76.60;;;;;;4207368;28;20050;-51
2021/07/19 03:09:57;;;;;;;0.10;0.10;;;23.50;76.60;;;;;;4207171;28;20044;-49
2021/07/19 03:12:23;;;;;;;1.80;1.13;;;23.50;76.60;;;;;;4206070;28;20101;-53
2021/07/19 03:14:45;;;;;;;0.00;0.00;;;23.50;76.60;;;;;;4206951;28;20048;-56
2021/07/19 03:17:09;;;;;;;0.00;0.00;;;23.50;76.70;;;;;;4207723;28;20452;-54
2021/07/19 03:19:32;;;;;;;0.00;0.00;;;23.50;76.60;;;;;;4207805;28;20066;-53
2021/07/19 03:21:58;;;;;;;0.00;0.00;;;23.40;76.60;;;;;;4207463;28;20044;-53
2021/07/19 03:24:40;;;;;;;0.28;0.25;;;23.50;76.70;;;;;;4207213;28;20055;-53
2021/07/19 03:27:02;;;;;;;0.00;0.00;;;23.40;77.50;;;;;;4207581;28;20656;-53
2021/07/19 03:29:27;;;;;;;0.00;0.00;;;23.40;76.60;;;;;;4205863;28;20452;-54
2021/07/19 03:32:09;;;;;;;0.10;0.10;;;23.40;76.60;;;;;;4205455;28;20052;-51
2021/07/19 03:34:33;;;;;;;3.40;1.17;;;23.40;77.50;;;;;;4206098;28;20121;-54
2021/07/19 03:36:56;;;;;;;0.00;0.00;;;23.40;76.70;;;;;;4207334;28;20055;-51
2021/07/19 03:39:19;;;;;;;0.00;0.00;;;23.40;76.70;;;;;;4207747;28;20055;-53
2021/07/19 03:41:51;;;;;;;0.52;0.52;;;23.40;76.60;;;;;;4205754;28;20078;-52
2021/07/19 03:44:14;;;;;;;0.50;0.50;;;23.40;76.80;;;;;;4206021;28;20488;-52
2021/07/19 03:46:40;;;;;;;0.20;0.20;;;23.40;76.80;;;;;;4205901;28;20040;-49
2021/07/19 03:49:03;;;;;;;0.00;0.00;;;23.40;76.80;;;;;;4206011;28;20052;-48
2021/07/19 03:51:29;;;;;;;2.17;0.47;;;23.40;76.90;;;;;;4207290;28;20126;-54
2021/07/19 03:53:56;;;;;;;0.17;0.17;;;23.40;76.80;;;;;;4205834;28;20058;-53
2021/07/19 03:56:20;;;;;;;0.40;0.40;;;23.40;76.80;;;;;;4234990;27;20112;-52
2021/07/19 03:58:46;;;;;;;0.50;0.50;;;23.30;77.60;;;;;;4237868;27;20051;-52
2021/07/19 04:01:09;;;;;;;0.00;0.00;;;23.30;76.80;;;;;;4210928;28;20048;-54
2021/07/19 04:03:47;;;;;;;0.10;0.10;;;23.30;76.80;;;;;;4209127;28;20056;-51
2021/07/19 04:06:17;;;;;;;0.00;0.00;;;23.30;76.80;;;;;;4209692;28;20145;-52
2021/07/19 04:08:47;;;;;;;0.00;0.00;;;23.30;76.90;;;;;;4208147;28;20461;-52
2021/07/19 04:11:16;;;;;;;0.00;0.00;;;23.30;76.90;;;;;;4189154;28;20399;-52
2021/07/19 04:13:39;;;;;;;1.45;0.45;;;23.30;76.90;;;;;;4220061;28;20112;-53
2021/07/19 04:16:01;;;;;;;0.15;0.15;;;23.20;76.90;;;;;;4192159;28;20052;-53
2021/07/19 04:18:27;;;;;;;1.00;0.30;;;23.30;77.00;;;;;;4193371;28;20045;-54
2021/07/19 04:20:51;;;;;;;0.00;0.00;;;23.20;76.90;;;;;;4192057;28;20139;-54
2021/07/19 04:23:14;;;;;;;0.22;0.22;;;23.20;77.80;;;;;;4193397;28;20040;-52
2021/07/19 04:25:38;;;;;;;0.00;0.00;;;23.20;77.00;;;;;;4176378;28;20071;-53
2021/07/19 04:28:02;;;;;;;0.10;0.10;;;23.20;76.90;;;;;;4193262;28;20051;-52
2021/07/19 04:30:33;;;;;;;0.00;0.00;;;23.20;76.90;;;;;;4175589;28;20049;-54
2021/07/19 04:32:56;;;;;;;0.00;0.00;;;23.20;77.00;;;;;;4175325;28;20135;-54
2021/07/19 04:35:19;;;;;;;0.55;0.55;;;23.20;77.00;;;;;;4193006;28;20414;-52
2021/07/19 04:37:43;;;;;;;0.10;0.10;;;23.20;77.00;;;;;;4187033;28;20071;-51
2021/07/19 04:40:07;;;;;;;1.42;1.10;;;23.20;77.00;;;;;;4191887;28;20103;-53
2021/07/19 04:42:29;;;;;;;0.20;0.20;;;23.20;77.10;;;;;;4192922;28;20052;-52
2021/07/19 04:44:51;;;;;;;0.00;0.00;;;23.20;77.10;;;;;;4193121;28;20048;-51
2021/07/19 04:47:13;;;;;;;0.45;0.45;;;23.20;77.10;;;;;;4192841;28;20495;-50
2021/07/19 04:49:37;;;;;;;0.10;0.10;;;23.20;77.00;;;;;;4192917;28;20052;-53
2021/07/19 04:51:59;;;;;;;1.45;0.75;;;23.20;77.00;;;;;;4192981;28;20407;-55
2021/07/19 04:54:27;;;;;;;0.00;0.00;;;23.20;77.10;;;;;;4192441;28;20056;-55
2021/07/19 04:56:52;;;;;;;0.10;0.10;;;23.20;77.10;;;;;;4192523;28;20110;-51
2021/07/19 04:59:16;;;;;;;0.65;0.38;;;23.20;77.10;;;;;;4192761;28;20429;-52
2021/07/19 05:01:40;;;;;;;0.75;0.32;;;23.20;77.10;;;;;;4192874;28;20044;-52
2021/07/19 05:04:04;;;;;;;0.55;0.55;;;23.20;77.10;;;;;;4192255;28;20486;-52
2021/07/19 05:06:29;;;;;;;0.45;0.45;;;23.20;77.00;;;;;;4207960;27;20131;-52
2021/07/19 05:08:52;;;;;;;0.00;0.00;;;23.20;77.10;;;;;;4209579;28;20130;-50
2021/07/19 05:11:17;;;;;;;0.05;0.05;;;23.20;77.00;;;;;;4209338;28;20051;-50
2021/07/19 05:13:41;;;;;;;1.88;1.38;;;23.20;77.00;;;;;;4208517;28;20698;-52
2021/07/19 05:16:04;;;;;;;0.20;0.20;;;23.20;76.90;;;;;;4209112;28;20047;-51
2021/07/19 05:18:27;;;;;;;0.00;0.00;;;23.20;76.90;;;;;;4194646;28;20130;-54
2021/07/19 05:20:50;;;;;;;0.55;0.55;;;23.20;76.90;;;;;;4209650;28;20051;-53
2021/07/19 05:23:12;;;;;;;0.10;0.10;;;23.20;76.70;;;;;;4209032;27;20071;-55
2021/07/19 05:25:35;;;;;;;1.13;1.08;;;23.20;76.70;;;;;;4210241;28;20504;-51
2021/07/19 05:28:08;;;;;;;0.00;0.00;;;23.20;78.10;;;;;;4206534;28;20048;-52
2021/07/19 05:30:35;;;;;;;0.00;0.00;;;23.30;77.00;;;;;;4208878;28;20052;-51
2021/07/19 05:32:57;;;;;;;1.02;0.57;;;23.20;76.70;;;;;;4209402;28;20051;-49
2021/07/19 05:35:21;;;;;;;0.00;0.00;;;23.30;76.60;;;;;;4208632;28;20056;-51
2021/07/19 05:37:43;;;;;;;0.00;0.00;;;23.30;76.50;;;;;;4204859;28;20128;-54
2021/07/19 05:40:06;;;;;;;0.00;0.00;;;23.30;76.30;;;;;;4192646;28;20548;-51
2021/07/19 05:42:28;;;;;;;0.28;0.20;;;23.20;76.20;;;;;;4207637;28;20075;-54
2021/07/19 05:44:51;;;;;;;0.00;0.00;;;23.20;76.10;;;;;;4209089;28;20056;-54
2021/07/19 05:47:13;;;;;;;0.15;0.15;;;23.20;76.10;;;;;;4207549;28;20060;-51
2021/07/19 05:49:37;;;;;;;5.43;0.95;;;23.20;76.00;;;;;;4209107;28;20508;-55
2021/07/19 05:51:59;;;;;;;0.47;0.47;;;23.20;76.00;;;;;;4208281;28;20059;-51
2021/07/19 05:54:21;;;;;;;0.30;0.30;;;23.20;76.00;;;;;;4208799;28;20067;-54
2021/07/19 05:56:43;;;;;;;0.47;0.47;;;23.20;75.90;;;;;;4208686;28;20430;-52
2021/07/19 05:59:05;;;;;;;0.00;0.00;;;23.20;75.80;;;;;;4209089;28;20040;-50
2021/07/19 06:01:29;;;;;;;0.30;0.30;;;23.20;75.70;;;;;;4207848;28;20051;-52
2021/07/19 06:03:51;;;;;;;0.08;0.08;;;23.20;75.70;;;;;;4208553;28;20060;-52
2021/07/19 06:06:14;;;;;;;0.25;0.25;;;23.20;75.70;;;;;;4208374;28;20108;-50
2021/07/19 06:08:36;;;;;;;0.03;0.03;;;23.20;75.70;;;;;;4207015;27;20054;-50
2021/07/19 06:10:59;;;;;;;0.00;0.00;;;23.10;75.70;;;;;;4195909;28;20051;-51
2021/07/19 06:13:21;;;;;;;0.00;0.00;;;23.20;75.70;;;;;;4208458;28;20052;-49
2021/07/19 06:15:45;;;;;;;0.70;0.70;;;23.20;75.70;;;;;;4208072;28;20074;-51
2021/07/19 06:18:09;;;;;;;0.00;0.00;;;23.20;75.50;;;;;;4208317;28;20052;-52
2021/07/19 06:20:31;;;;;;;0.00;0.00;;;23.20;75.30;;;;;;4208198;28;20050;-53
2021/07/19 06:22:53;;;;;;;0.40;0.40;;;23.20;75.10;;;;;;4207458;28;20047;-51
2021/07/19 06:25:16;;;;;;;0.00;0.00;;;23.20;75.00;;;;;;4206951;28;20048;-51
2021/07/19 06:27:39;;;;;;;0.00;0.00;;;23.20;74.80;;;;;;4208372;28;20052;-51
2021/07/19 06:30:01;;;;;;;0.00;0.00;;;23.20;74.60;;;;;;4208287;28;20075;-51
2021/07/19 06:32:24;;;;;;;0.45;0.45;;;23.20;74.50;;;;;;4207971;28;20044;-53
2021/07/19 06:34:47;;;;;;;0.30;0.30;;;23.20;74.50;;;;;;4206817;28;20709;-52
2021/07/19 06:37:09;;;;;;;0.30;0.30;;;23.10;74.30;;;;;;4208524;28;20563;-52
2021/07/19 06:39:32;;;;;;;0.00;0.00;;;23.10;74.20;;;;;;4207665;28;20482;-51
2021/07/19 06:41:54;;;;;;;0.00;0.00;;;23.10;74.30;;;;;;4207822;28;20521;-51
2021/07/19 06:44:17;;;;;;;0.10;0.10;;;23.10;74.20;;;;;;4207925;28;20075;-54
2021/07/19 06:46:38;;;;;;;0.00;0.00;;;23.10;74.20;;;;;;4191486;28;20071;-49
2021/07/19 06:49:02;;;;;;;0.10;0.10;;;23.10;74.20;;;;;;4191243;28;20087;-54
2021/07/19 06:51:26;;;;;;;0.65;0.65;;;23.10;74.10;;;;;;4191457;28;20044;-52
2021/07/19 06:53:47;;;;;;;0.65;0.65;;;23.10;74.10;;;;;;4190904;28;20524;-53
2021/07/19 06:56:10;;;;;;;1.65;0.75;;;23.10;74.10;;;;;;4191205;28;20094;-53
2021/07/19 06:58:32;;;;;;;0.20;0.20;;;23.10;74.00;;;;;;4191084;28;20059;-50
2021/07/19 07:00:54;;;;;;;0.00;0.00;;;23.10;74.00;;;;;;4190865;28;20052;-51
2021/07/19 07:03:16;;;;;;;0.85;0.85;;;23.10;73.90;;;;;;4185581;28;20084;-52
2021/07/19 07:05:38;;;;;;;0.10;0.10;;;23.00;73.80;;;;;;4191140;28;20226;-52
2021/07/19 07:08:03;;;;;;;0.15;0.15;;;23.10;73.70;;;;;;4194605;28;20066;-52
2021/07/19 07:10:26;;;;;;;0.10;0.10;;;23.00;73.50;;;;;;4208093;28;20097;-50
2021/07/19 07:12:48;;;;;;;0.00;0.00;;;23.00;73.50;;;;;;4207623;28;20051;-52
2021/07/19 07:15:11;;;;;;;0.32;0.32;;;23.00;73.50;;;;;;4208086;28;20047;-52
2021/07/19 07:17:33;;;;;;;0.00;0.00;;;23.00;73.40;;;;;;4208243;28;20063;-52
2021/07/19 07:19:55;;;;;;;0.30;0.30;;;23.00;73.30;;;;;;4205351;28;20067;-49
2021/07/19 07:22:18;;;;;;;0.45;0.45;;;23.00;73.10;;;;;;4206123;28;20498;-51
2021/07/19 07:24:41;;;;;;;0.00;0.00;;;23.00;73.00;;;;;;4206185;28;20044;-50
2021/07/19 07:27:04;;;;;;;0.08;0.08;;;23.00;72.80;;;;;;4206912;28;20075;-48
2021/07/19 07:29:26;;;;;;;2.08;0.88;;;23.00;72.60;;;;;;4206823;27;20426;-50
2021/07/19 07:31:48;;;;;;;0.20;0.20;;;23.10;72.30;;;;;;4194206;28;20125;-46
2021/07/19 07:34:11;;;;;;;0.00;0.00;;;23.10;72.10;;;;;;4194391;28;20635;-50
2021/07/19 07:36:34;;;;;;;1.45;0.17;;;23.10;72.10;;;;;;4194178;28;20076;-50
2021/07/19 07:38:57;;;;;;;0.40;0.40;;;23.10;72.10;;;;;;4193840;28;20074;-50
2021/07/19 07:41:21;;;;;;;0.00;0.00;;;23.10;71.90;;;;;;4194278;28;20058;-51
2021/07/19 07:43:44;;;;;;;0.08;0.08;;;23.10;71.90;;;;;;4193797;28;20124;-52
2021/07/19 07:46:06;;;;;;;0.32;0.32;;;23.10;71.80;;;;;;4194077;28;20125;-52
2021/07/19 07:48:29;;;;;;;0.00;0.00;;;23.10;71.40;;;;;;4194213;28;20102;-48
2021/07/19 07:50:51;;;;;;;0.65;0.65;;;23.10;70.90;;;;;;4194174;28;20058;-50
2021/07/19 07:53:13;;;;;;;0.00;0.00;;;23.10;70.20;;;;;;4193717;28;20049;-52
2021/07/19 07:55:35;;;;;;;3.88;1.75;;;23.20;70.40;;;;;;4194162;28;20055;-52
2021/07/19 07:58:01;;;;;;;0.00;0.00;;;23.20;70.20;;;;;;4193714;28;20159;-50
2021/07/19 08:00:23;;;;;;;0.10;0.10;;;23.20;70.10;;;;;;4179640;28;20484;-49
2021/07/19 08:02:46;;;;;;;1.08;0.63;;;23.20;69.90;;;;;;4177886;28;20045;-51
2021/07/19 08:05:11;;;;;;;1.27;0.65;;;23.20;69.90;;;;;;4193548;28;20134;-48
2021/07/19 08:07:33;;;;;;;0.73;0.73;;;23.20;69.50;;;;;;4193430;28;20513;-50
2021/07/19 08:09:56;;;;;;;0.20;0.20;;;23.20;69.00;;;;;;4193667;28;20054;-47
2021/07/19 08:12:18;;;;;;;1.25;0.63;;;23.20;68.80;;;;;;4186486;28;20059;-46
2021/07/19 08:14:41;;;;;;;0.00;0.00;;;23.20;68.30;;;;;;4193829;28;20135;-47
2021/07/19 08:17:04;;;;;;;0.22;0.22;;;23.20;68.30;;;;;;4192822;28;20048;-52
2021/07/19 08:19:32;;;;;;;0.00;0.00;;;23.20;67.70;;;;;;4193981;28;20048;-51
2021/07/19 08:21:56;;;;;;;0.10;0.10;;;23.20;67.70;;;;;;4192667;28;20098;-50
2021/07/19 08:24:18;;;;;;;0.43;0.43;;;23.20;67.40;;;;;;4193054;28;20052;-53
2021/07/19 08:26:40;;;;;;;0.20;0.20;;;23.20;67.50;;;;;;4192422;28;20051;-50
2021/07/19 08:29:04;;;;;;;0.00;0.00;;;23.20;67.60;;;;;;4193382;28;20115;-52
2021/07/19 08:31:29;;;;;;;0.00;0.00;;;23.20;67.50;;;;;;4192453;28;20149;-52
2021/07/19 08:33:52;;;;;;;0.00;0.00;;;23.20;67.40;;;;;;4193431;28;20057;-55
2021/07/19 08:36:14;;;;;;;0.05;0.05;;;23.20;67.20;;;;;;4193322;28;20530;-52
2021/07/19 08:38:36;;;;;;;0.00;0.00;;;23.20;66.90;;;;;;4193453;28;20067;-51
2021/07/19 08:41:00;;;;;;;0.38;0.38;;;23.30;67.00;;;;;;4193091;28;20072;-52
2021/07/19 08:43:32;;;;;;;0.00;0.00;;;23.20;67.60;;;;;;4192144;28;20044;-54
2021/07/19 08:45:54;;;;;;;0.00;0.00;;;23.20;66.60;;;;;;4191803;28;20512;-49
2021/07/19 08:48:17;;;;;;;0.00;0.00;;;23.20;66.50;;;;;;4193296;28;20059;-52
2021/07/19 08:50:40;;;;;;;0.00;0.00;;;23.20;66.40;;;;;;4193241;28;20045;-53
2021/07/19 08:53:02;;;;;;;0.80;0.60;;;23.20;66.50;;;;;;4176515;28;20564;-51
2021/07/19 08:55:25;;;;;;;0.05;0.05;;;23.30;66.20;;;;;;4182888;28;20487;-52
2021/07/19 08:57:48;;;;;;;0.20;0.20;;;23.30;66.10;;;;;;4193219;28;20491;-54
2021/07/19 09:00:11;;;;;;;0.00;0.00;;;23.30;65.60;;;;;;4193152;28;20088;-53
2021/07/19 09:02:34;;;;;;;0.00;0.00;;;23.40;65.00;;;;;;4192959;28;20047;-51
2021/07/19 09:04:58;;;;;;;0.15;0.15;;;23.40;64.80;;;;;;4192655;28;20056;-52
2021/07/19 09:07:21;;;;;;;0.45;0.45;;;23.40;64.30;;;;;;4193055;28;20479;-51
2021/07/19 09:09:43;;;;;;;0.52;0.52;;;23.40;64.40;;;;;;4191324;28;20056;-53
2021/07/19 09:12:06;;;;;;;0.00;0.00;;;23.50;64.60;;;;;;4192171;28;20045;-51
2021/07/19 09:14:30;;;;;;;0.00;0.00;;;23.50;64.60;;;;;;4176421;28;20120;-49
2021/07/19 09:16:53;;;;;;;0.00;0.00;;;23.50;64.40;;;;;;4176022;28;20045;-49
2021/07/19 09:19:17;;;;;;;0.03;0.03;;;23.50;64.30;;;;;;4176304;28;20056;-53
2021/07/19 09:21:42;;;;;;;0.10;0.10;;;23.60;64.30;;;;;;4201432;28;20051;-54
2021/07/19 09:24:08;;;;;;;0.20;0.20;;;23.60;63.70;;;;;;4209289;28;20055;-50
2021/07/19 09:26:32;;;;;;;0.10;0.10;;;23.50;63.20;;;;;;4175929;28;20056;-49
2021/07/19 09:28:57;;;;;;;0.10;0.10;;;23.60;62.50;;;;;;4192603;28;20056;-53
2021/07/19 09:31:19;;;;;;;0.10;0.10;;;23.50;61.70;;;;;;4200527;28;20051;-51
2021/07/19 09:33:42;;;;;;;0.05;0.05;;;23.50;61.50;;;;;;4208999;28;20118;-49
2021/07/19 09:36:04;;;;;;;0.00;0.00;;;23.60;61.70;;;;;;4192587;28;20049;-50
2021/07/19 09:38:30;;;;;;;0.57;0.57;;;23.60;62.00;;;;;;4206454;28;20051;-50
2021/07/19 09:40:58;;;;;;;0.10;0.10;;;23.60;62.30;;;;;;4208052;28;20048;-52
2021/07/19 09:43:23;;;;;;;0.00;0.00;;;23.70;62.40;;;;;;4208770;28;20467;-52
2021/07/19 09:45:46;;;;;;;0.00;0.00;;;23.70;62.50;;;;;;4209062;28;20083;-51
2021/07/19 09:48:10;;;;;;;1.08;1.00;;;23.70;62.20;;;;;;4206921;28;20052;-52
2021/07/19 09:50:41;;;;;;;0.05;0.05;;;23.80;62.00;;;;;;4209202;28;20124;-52
2021/07/19 09:53:04;;;;;;;0.10;0.10;;;23.80;61.80;;;;;;4208222;28;20058;-52
2021/07/19 09:55:28;;;;;;;0.00;0.00;;;23.80;61.70;;;;;;4207135;28;20040;-47
2021/07/19 09:57:54;;;;;;;0.15;0.15;;;23.90;61.50;;;;;;4208166;28;20052;-49
2021/07/19 10:00:20;;;;;;;0.00;0.00;;;23.90;61.30;;;;;;4200711;28;20131;-52
2021/07/19 10:02:43;;;;;;;26.95;1.90;;;23.90;61.20;;;;;;4207888;28;20692;-52
2021/07/19 10:05:06;;;;;;;1.25;1.15;;;23.90;61.20;;;;;;4193263;28;20049;-51
2021/07/19 10:07:28;;;;;;;2.00;0.43;;;23.90;61.20;;;;;;4201713;28;20040;-52
2021/07/19 10:09:56;;;;;;;0.75;0.30;;;23.90;62.00;;;;;;4207114;28;20383;-50
2021/07/19 10:12:20;;;;;;;0.88;0.88;;;23.90;61.10;;;;;;4207890;28;20462;-52
2021/07/19 10:14:45;;;;;;;2.00;1.23;;;23.90;61.20;;;;;;4206696;28;20044;-52
2021/07/19 10:17:08;;;;;;;0.45;0.45;;;23.90;61.30;;;;;;4206871;28;20152;-49
2021/07/19 10:19:33;;;;;;;0.00;0.00;;;23.80;61.10;;;;;;4208560;28;20048;-52
2021/07/19 10:21:59;;;;;;;2.33;0.77;;;23.80;61.10;;;;;;4198538;28;20059;-50
2021/07/19 10:24:22;;;;;;;0.10;0.10;;;23.80;61.00;;;;;;4206787;28;20051;-53
2021/07/19 10:26:45;;;;;;;0.00;0.00;;;23.80;62.20;;;;;;4208159;28;20040;-49
2021/07/19 10:29:10;;;;;;;0.00;0.00;;;23.70;61.50;;;;;;4208229;28;20052;-50
2021/07/19 10:31:32;;;;;;;0.03;0.03;;;23.70;61.60;;;;;;4207851;28;20048;-47
2021/07/19 10:33:56;;;;;;;0.32;0.32;;;23.70;61.70;;;;;;4207884;28;20074;-52
2021/07/19 10:36:26;;;;;;;0.10;0.10;;;23.70;61.80;;;;;;4208409;28;20080;-52
2021/07/19 10:38:50;;;;;;;0.38;0.38;;;23.70;62.00;;;;;;4207208;28;20130;-48
2021/07/19 10:41:13;;;;;;;0.00;0.00;;;23.70;61.90;;;;;;4202082;28;21282;-48
2021/07/19 10:43:35;;;;;;;0.10;0.10;;;23.70;62.50;;;;;;4207873;28;20047;-48
2021/07/19 10:46:08;;;;;;;2.83;0.55;;;23.70;62.40;;;;;;4208115;28;21182;-49
2021/07/19 10:48:32;;;;;;;0.00;0.00;;;23.60;62.00;;;;;;4191146;28;20808;-49
2021/07/19 10:50:57;;;;;;;0.00;0.00;;;23.60;62.00;;;;;;4191252;28;20392;-52
2021/07/19 10:53:21;;;;;;;0.25;0.20;;;23.60;61.90;;;;;;4190689;28;20055;-48
2021/07/19 10:55:43;;;;;;;0.10;0.10;;;23.70;62.50;;;;;;4198362;28;20071;-47
2021/07/19 10:58:06;;;;;;;0.10;0.10;;;23.70;62.30;;;;;;4207024;28;20445;-47
2021/07/19 11:00:29;;;;;;;0.90;0.90;;;23.70;62.00;;;;;;4207859;28;20040;-49
2021/07/19 11:03:02;;;;;;;0.10;0.10;;;23.60;62.00;;;;;;4207908;28;20051;-45
2021/07/19 11:05:34;;;;;;;0.10;0.10;;;23.70;62.20;;;;;;4206796;28;20046;-45
2021/07/19 11:07:56;;;;;;;0.00;0.00;;;23.70;62.20;;;;;;4207958;28;20051;-46
2021/07/19 11:10:20;;;;;;;0.00;0.00;;;23.70;62.40;;;;;;4206591;28;20361;-49
2021/07/19 11:12:48;;;;;;;0.05;0.05;;;23.70;62.50;;;;;;4207269;28;20058;-45
2021/07/19 11:15:11;;;;;;;0.00;0.00;;;23.70;62.40;;;;;;4207483;28;20062;-50
2021/07/19 11:17:34;;;;;;;0.25;0.25;;;23.70;62.50;;;;;;4207530;28;20498;-47
2021/07/19 11:19:58;;;;;;;0.38;0.38;;;23.80;62.40;;;;;;4205881;27;20056;-49
2021/07/19 11:22:26;;;;;;;0.00;0.00;;;23.80;62.10;;;;;;4205281;28;20122;-48
2021/07/19 11:24:50;;;;;;;0.00;0.00;;;23.80;61.90;;;;;;4207371;28;20072;-50
2021/07/19 11:27:18;;;;;;;0.10;0.10;;;23.80;61.40;;;;;;4207272;28;20059;-51
2021/07/19 11:29:42;;;;;;;0.55;0.55;;;23.80;61.20;;;;;;4207751;28;20052;-49
2021/07/19 11:32:18;;;;;;;0.28;0.28;;;23.80;61.00;;;;;;4234879;28;20043;-50
2021/07/19 11:34:41;;;;;;;0.90;0.90;;;23.90;60.70;;;;;;4190796;28;20048;-52
2021/07/19 11:37:05;;;;;;;1.00;1.00;;;23.80;60.60;;;;;;4191061;28;20472;-46
2021/07/19 11:39:27;;;;;;;0.08;0.08;;;23.90;60.70;;;;;;4205208;28;20052;-51
2021/07/19 11:41:59;;;;;;;0.43;0.43;;;23.80;60.30;;;;;;4205384;28;20757;-51
2021/07/19 11:44:22;;;;;;;0.10;0.10;;;23.80;60.60;;;;;;4202356;28;20063;-55
2021/07/19 11:46:45;;;;;;;0.45;0.45;;;23.90;60.80;;;;;;4205845;28;20145;-48
2021/07/19 11:49:10;;;;;;;0.00;0.00;;;23.90;61.10;;;;;;4203129;28;20055;-51
2021/07/19 11:51:34;;;;;;;0.00;0.00;;;23.90;61.00;;;;;;4203618;28;20044;-48
2021/07/19 11:54:00;;;;;;;3.13;0.47;;;23.90;60.50;;;;;;4202251;28;20051;-52
2021/07/19 11:56:22;;;;;;;0.50;0.50;;;23.90;60.60;;;;;;4207162;28;20403;-51
2021/07/19 11:58:51;;;;;;;0.10;0.10;;;23.90;60.50;;;;;;4205907;28;20094;-48
2021/07/19 12:01:13;;;;;;;0.00;0.00;;;23.90;60.60;;;;;;4207826;28;20048;-47
2021/07/19 12:03:36;;;;;;;9.75;2.28;;;23.90;60.60;;;;;;4191092;28;20378;-52
2021/07/19 12:05:59;;;;;;;0.30;0.30;;;23.90;61.40;;;;;;4190825;28;20044;-48
2021/07/19 12:08:26;;;;;;;1.25;0.90;;;23.90;60.50;;;;;;4190787;28;20064;-48
2021/07/19 12:10:52;;;;;;;0.20;0.20;;;23.90;60.30;;;;;;4190519;28;20060;-47
2021/07/19 12:13:16;;;;;;;1.27;0.52;;;23.90;60.20;;;;;;4190505;28;20056;-48
2021/07/19 12:15:39;;;;;;;0.77;0.77;;;23.90;60.00;;;;;;4174266;28;20048;-50
2021/07/19 12:18:01;;;;;;;0.00;0.00;;;23.90;60.00;;;;;;4175863;28;20048;-46
2021/07/19 12:20:25;;;;;;;0.45;0.45;;;23.90;60.00;;;;;;4177254;28;20052;-47
2021/07/19 12:22:53;;;;;;;0.25;0.25;;;24.00;60.00;;;;;;4187646;28;20045;-50
2021/07/19 12:25:15;;;;;;;0.80;0.80;;;23.90;60.00;;;;;;4193146;28;20060;-57
2021/07/19 12:27:39;;;;;;;0.40;0.40;;;24.00;59.90;;;;;;4177344;28;20079;-50
2021/07/19 12:30:00;;;;;;;0.20;0.20;;;24.00;59.90;;;;;;4176972;28;20041;-48
2021/07/19 12:32:23;;;;;;;0.05;0.05;;;24.00;60.10;;;;;;4183567;28;20137;-52